Time;durP1;ratioP1;P1;durP2;ratioP2;P2;SDS_P1;SDS_P2;PMS_P1;PMS_P2;Temp;Humidity;BMP_temperature;BMP_pressure;BME280_temperature;BME280_humidity;BME280_pressure;Samples;Min_cycle;Max_cycle;Signal;HPM_P1;HPM_P2
2024/04/05 00:00:17;;;;;;;39.00;6.10;;;;;;;11.31;89.64;100707.16;5013235;28;20088;-53
2024/04/05 00:02:46;;;;;;;34.28;6.05;;;;;;;11.29;90.00;100711.00;5021912;28;20056;-52
2024/04/05 00:05:12;;;;;;;45.17;6.57;;;;;;;11.24;89.03;100715.91;5029223;28;20063;-51
2024/04/05 00:07:39;;;;;;;47.75;5.47;;;;;;;11.50;88.40;100706.31;5029386;28;20045;-53
2024/04/05 00:10:08;;;;;;;46.47;6.30;;;;;;;11.56;87.95;100717.25;5015952;28;20099;-53
2024/04/05 00:12:34;;;;;;;39.40;5.50;;;;;;;10.96;89.95;100720.28;5027851;28;20042;-52
2024/04/05 00:15:00;;;;;;;55.95;7.07;;;;;;;11.35;88.45;100716.59;5023121;28;20366;-52
2024/04/05 00:17:26;;;;;;;41.70;6.15;;;;;;;11.45;87.74;100714.72;5016894;28;20385;-51
2024/04/05 00:19:53;;;;;;;45.08;6.78;;;;;;;11.42;87.69;100719.53;5018792;28;20057;-51
2024/04/05 00:22:21;;;;;;;34.63;5.93;;;;;;;10.98;87.91;100716.47;5003033;28;20052;-55
2024/04/05 00:24:47;;;;;;;39.50;6.00;;;;;;;11.40;86.93;100722.34;5043157;28;20055;-53
2024/04/05 00:27:13;;;;;;;44.20;5.07;;;;;;;11.31;86.50;100711.69;5011945;28;20164;-48
2024/04/05 00:29:40;;;;;;;34.25;6.38;;;;;;;11.51;86.19;100722.16;5038286;28;20489;-54
2024/04/05 00:32:06;;;;;;;40.88;5.13;;;;;;;11.42;86.21;100719.53;5040694;28;20045;-52
2024/04/05 00:34:32;;;;;;;39.00;5.55;;;;;;;11.38;86.45;100724.28;5035996;28;20457;-53
2024/04/05 00:36:58;;;;;;;35.38;5.90;;;;;;;11.26;87.01;100720.09;5024263;28;20069;-50
2024/04/05 00:39:24;;;;;;;39.20;6.32;;;;;;;11.39;86.60;100725.13;5035577;28;20136;-52
2024/04/05 00:41:50;;;;;;;37.20;5.47;;;;;;;11.46;85.83;100712.91;5036907;28;20041;-53
2024/04/05 00:44:15;;;;;;;27.70;4.63;;;;;;;11.55;85.55;100714.72;5037537;28;20130;-51
2024/04/05 00:46:42;;;;;;;40.92;5.35;;;;;;;11.34;86.08;100711.41;5041128;28;20041;-49
2024/04/05 00:49:09;;;;;;;41.72;5.90;;;;;;;11.10;86.43;100710.00;5028857;28;20078;-52
2024/04/05 00:51:37;;;;;;;29.38;5.18;;;;;;;11.48;85.16;100700.28;5027039;28;20057;-53
2024/04/05 00:54:04;;;;;;;32.88;4.85;;;;;;;11.50;84.22;100699.16;5044401;28;20041;-50
2024/04/05 00:56:32;;;;;;;31.45;4.50;;;;;;;11.63;83.79;100706.88;5032259;28;20486;-52
2024/04/05 00:58:59;;;;;;;22.05;4.38;;;;;;;11.26;84.14;100708.59;5017001;28;20673;-55
2024/04/05 01:01:25;;;;;;;38.53;5.35;;;;;;;11.37;85.18;100711.13;5040995;28;20057;-51
2024/04/05 01:03:52;;;;;;;36.15;5.93;;;;;;;11.16;85.97;100713.94;5031653;28;20053;-52
2024/04/05 01:06:17;;;;;;;30.63;5.95;;;;;;;11.32;84.26;100708.00;5043662;28;20053;-53
2024/04/05 01:08:44;;;;;;;30.80;5.28;;;;;;;11.74;83.17;100717.38;5028233;28;20049;-46
2024/04/05 01:11:09;;;;;;;38.47;6.93;;;;;;;11.70;82.46;100707.97;5012203;28;20081;-51
2024/04/05 01:13:35;;;;;;;34.88;4.72;;;;;;;11.58;82.89;100709.91;5024439;28;20045;-51
2024/04/05 01:16:06;;;;;;;29.45;4.70;;;;;;;11.54;83.35;100719.22;5033335;28;20484;-53
2024/04/05 01:18:32;;;;;;;41.30;5.85;;;;;;;11.35;83.53;100718.41;5043020;28;20051;-47
2024/04/05 01:21:01;;;;;;;35.00;5.75;;;;;;;11.41;83.44;100720.50;5024114;28;20067;-52
2024/04/05 01:23:29;;;;;;;34.83;4.70;;;;;;;11.45;84.07;100720.06;5025528;28;20053;-51
2024/04/05 01:25:57;;;;;;;28.13;4.43;;;;;;;11.37;83.21;100724.47;5044206;28;20049;-52
2024/04/05 01:28:22;;;;;;;31.85;4.82;;;;;;;11.41;83.76;100720.50;5033350;28;20228;-51
2024/04/05 01:30:48;;;;;;;36.45;4.82;;;;;;;11.22;84.16;100725.88;5036787;28;20529;-52
2024/04/05 01:33:14;;;;;;;33.40;6.07;;;;;;;11.53;83.08;100727.38;5028810;28;20163;-53
2024/04/05 01:35:39;;;;;;;37.28;5.18;;;;;;;11.29;84.42;100725.16;5031522;28;20045;-52
2024/04/05 01:38:05;;;;;;;24.58;4.18;;;;;;;11.49;84.08;100724.16;5019946;28;20056;-53
2024/04/05 01:40:31;;;;;;;37.40;4.95;;;;;;;11.45;83.22;100721.88;5023305;28;20053;-53
2024/04/05 01:42:57;;;;;;;28.58;4.90;;;;;;;11.39;83.63;100728.66;5007125;28;20128;-51
2024/04/05 01:45:22;;;;;;;23.98;4.30;;;;;;;11.73;82.67;100736.19;5023548;28;20135;-53
2024/04/05 01:47:48;;;;;;;29.90;5.32;;;;;;;11.31;84.49;100743.72;5025648;28;20049;-52
2024/04/05 01:50:15;;;;;;;32.25;5.25;;;;;;;11.28;84.17;100744.81;5024884;28;20054;-50
2024/04/05 01:52:41;;;;;;;27.45;5.07;;;;;;;11.41;84.23;100760.53;5022544;28;20099;-48
2024/04/05 01:55:07;;;;;;;33.33;4.88;;;;;;;11.32;84.02;100746.22;5024909;28;20160;-53
2024/04/05 01:57:37;;;;;;;31.02;4.88;;;;;;;11.38;84.47;100745.63;5021873;28;20045;-49
2024/04/05 02:00:05;;;;;;;35.65;5.10;;;;;;;10.98;85.61;100743.13;5030933;28;20432;-49
2024/04/05 02:02:38;;;;;;;27.95;5.00;;;;;;;11.06;86.01;100737.94;5024133;28;20492;-49
2024/04/05 02:05:04;;;;;;;28.15;4.38;;;;;;;11.42;85.25;100731.03;5023988;28;20051;-52
2024/04/05 02:07:30;;;;;;;33.72;4.72;;;;;;;11.60;83.83;100731.16;5022550;28;20381;-53
2024/04/05 02:09:55;;;;;;;35.55;6.15;;;;;;;11.57;83.37;100732.28;5030975;28;20409;-51
2024/04/05 02:12:22;;;;;;;33.70;5.63;;;;;;;11.49;84.61;100728.66;5038540;28;20541;-53
2024/04/05 02:14:48;;;;;;;31.63;4.30;;;;;;;11.65;82.69;100726.22;5006589;28;20046;-53
2024/04/05 02:17:14;;;;;;;36.88;6.20;;;;;;;11.57;84.14;100718.09;5024382;28;20056;-53
2024/04/05 02:19:40;;;;;;;29.50;4.55;;;;;;;11.61;82.74;100724.84;5025017;28;20052;-54
2024/04/05 02:22:06;;;;;;;25.38;4.82;;;;;;;11.80;82.18;100727.47;5043528;28;20047;-54
2024/04/05 02:24:32;;;;;;;35.35;4.95;;;;;;;11.64;83.48;100721.91;5041900;28;20626;-52
2024/04/05 02:27:02;;;;;;;32.63;4.50;;;;;;;11.74;83.63;100720.03;5044304;28;20052;-51
2024/04/05 02:29:28;;;;;;;27.48;5.95;;;;;;;11.76;82.92;100730.56;5040835;28;20047;-51
2024/04/05 02:31:54;;;;;;;31.75;5.03;;;;;;;11.89;82.06;100729.25;5030241;28;20523;-49
2024/04/05 02:34:20;;;;;;;37.25;5.20;;;;;;;11.85;82.37;100737.72;5040610;28;20053;-54
2024/04/05 02:36:46;;;;;;;38.97;4.78;;;;;;;11.82;82.89;100736.19;5043981;28;20049;-51
2024/04/05 02:39:12;;;;;;;29.80;4.22;;;;;;;11.91;82.72;100732.63;5043670;28;20053;-53
2024/04/05 02:41:37;;;;;;;27.38;4.63;;;;;;;11.58;83.70;100735.81;5041235;28;20083;-52
2024/04/05 02:44:03;;;;;;;37.92;5.72;;;;;;;11.80;83.20;100731.94;5028697;28;20505;-53
2024/04/05 02:46:30;;;;;;;35.72;6.18;;;;;;;11.51;84.61;100729.34;5037240;28;20136;-52
2024/04/05 02:48:56;;;;;;;33.97;5.55;;;;;;;11.53;85.39;100724.69;5042086;28;20045;-53
2024/04/05 02:51:22;;;;;;;33.25;7.25;;;;;;;11.63;84.77;100730.06;5035880;28;20132;-54
2024/04/05 02:53:47;;;;;;;29.00;5.13;;;;;;;11.34;85.55;100722.06;5025010;28;20404;-48
2024/04/05 02:56:15;;;;;;;32.58;5.95;;;;;;;11.72;84.89;100723.84;5030989;28;20057;-49
2024/04/05 02:58:41;;;;;;;37.60;5.18;;;;;;;11.61;86.56;100727.53;5019074;28;20059;-50
2024/04/05 03:01:07;;;;;;;34.22;5.55;;;;;;;11.58;86.11;100725.94;5035955;28;20048;-52
2024/04/05 03:03:33;;;;;;;30.80;6.25;;;;;;;11.84;84.42;100728.03;4987210;28;20049;-53
2024/04/05 03:05:58;;;;;;;35.28;6.07;;;;;;;11.79;84.82;100735.59;5022136;28;20118;-51
2024/04/05 03:08:24;;;;;;;34.10;5.28;;;;;;;11.76;84.73;100728.75;5013096;28;20076;-52
2024/04/05 03:10:50;;;;;;;36.80;5.75;;;;;;;11.67;85.50;100734.94;5022433;28;20044;-50
2024/04/05 03:13:16;;;;;;;32.60;7.10;;;;;;;11.91;84.85;100737.13;5022402;28;20433;-54
2024/04/05 03:15:41;;;;;;;36.30;5.50;;;;;;;11.85;83.71;100741.25;5019823;28;20393;-51
2024/04/05 03:18:07;;;;;;;25.67;4.95;;;;;;;11.69;85.04;100735.66;5014838;28;20053;-51
2024/04/05 03:20:33;;;;;;;42.03;6.63;;;;;;;11.86;84.39;100739.38;5035444;28;20052;-51
2024/04/05 03:22:59;;;;;;;35.15;5.57;;;;;;;11.76;85.25;100734.09;5017398;28;20041;-55
2024/04/05 03:25:24;;;;;;;42.30;7.00;;;;;;;11.76;84.71;100741.25;5034955;28;20510;-51
2024/04/05 03:27:50;;;;;;;35.03;5.50;;;;;;;11.66;85.65;100735.09;5033099;28;20157;-52
2024/04/05 03:30:16;;;;;;;43.17;6.63;;;;;;;11.33;87.76;100734.56;5009210;28;20049;-53
2024/04/05 03:32:42;;;;;;;31.52;5.28;;;;;;;11.77;85.46;100733.09;5038459;28;20468;-54
2024/04/05 03:35:08;;;;;;;35.53;5.93;;;;;;;11.90;84.81;100722.94;5047260;28;20049;-51
2024/04/05 03:37:35;;;;;;;33.30;5.65;;;;;;;11.86;85.17;100718.00;5041870;28;20044;-46
2024/04/05 03:40:01;;;;;;;33.95;5.95;;;;;;;11.85;85.04;100729.72;5026599;28;20048;-52
2024/04/05 03:42:27;;;;;;;26.38;4.75;;;;;;;11.99;85.39;100723.88;5044087;28;20044;-51
2024/04/05 03:44:52;;;;;;;34.58;6.05;;;;;;;11.98;84.91;100715.03;5042926;28;20045;-53
2024/04/05 03:47:18;;;;;;;29.30;4.82;;;;;;;11.71;85.98;100719.50;5041213;28;20424;-56
2024/04/05 03:49:44;;;;;;;34.00;5.20;;;;;;;11.98;84.46;100723.06;5038905;28;20396;-50
2024/04/05 03:52:10;;;;;;;30.77;4.93;;;;;;;12.18;84.49;100717.63;5044049;28;20059;-52
2024/04/05 03:54:36;;;;;;;34.60;7.60;;;;;;;11.98;85.76;100712.38;5038039;28;20148;-48
2024/04/05 03:57:02;;;;;;;28.67;5.63;;;;;;;12.02;85.46;100712.06;5040634;28;20045;-54
2024/04/05 03:59:28;;;;;;;25.90;5.40;;;;;;;12.02;84.88;100712.91;5040976;28;20051;-52
2024/04/05 04:01:54;;;;;;;33.08;5.18;;;;;;;11.94;86.37;100712.78;5044948;28;20045;-52
2024/04/05 04:04:21;;;;;;;36.38;5.65;;;;;;;11.58;88.10;100709.13;5017142;28;20055;-53
2024/04/05 04:06:47;;;;;;;28.35;5.57;;;;;;;12.01;86.27;100705.88;5042017;28;20052;-51
2024/04/05 04:09:15;;;;;;;36.05;5.45;;;;;;;11.94;87.36;100694.09;5042186;28;20140;-51
2024/04/05 04:11:42;;;;;;;35.38;5.55;;;;;;;11.92;86.71;100706.78;5038301;28;20049;-49
2024/04/05 04:14:09;;;;;;;36.33;4.43;;;;;;;11.87;87.30;100704.53;5042778;28;20048;-51
2024/04/05 04:16:35;;;;;;;29.25;4.57;;;;;;;11.77;87.72;100708.22;5044915;28;20049;-49
2024/04/05 04:19:01;;;;;;;35.03;4.90;;;;;;;11.47;89.22;100717.25;5046141;28;20377;-54
2024/04/05 04:21:27;;;;;;;35.45;6.30;;;;;;;11.57;89.56;100712.75;5042717;28;20055;-51
2024/04/05 04:23:53;;;;;;;33.05;5.00;;;;;;;11.96;88.12;100711.66;5026532;28;20045;-52
2024/04/05 04:26:23;;;;;;;27.13;4.30;;;;;;;11.54;89.81;100713.88;5024491;28;20060;-53
2024/04/05 04:28:50;;;;;;;33.55;5.68;;;;;;;11.88;87.90;100722.22;5020147;28;20522;-53
2024/04/05 04:31:21;;;;;;;31.42;4.68;;;;;;;11.98;88.03;100731.06;5008495;28;20052;-49
2024/04/05 04:33:51;;;;;;;36.22;5.80;;;;;;;11.89;88.57;100741.78;5059711;28;20660;-51
2024/04/05 04:36:21;;;;;;;26.13;4.47;;;;;;;12.03;87.83;100735.13;5043130;28;20068;-55
2024/04/05 04:38:50;;;;;;;33.20;4.20;;;;;;;11.98;88.01;100730.22;5045025;28;20458;-51
2024/04/05 04:41:17;;;;;;;28.30;5.03;;;;;;;11.63;89.08;100735.38;5045251;28;20048;-51
2024/04/05 04:43:43;;;;;;;27.48;4.72;;;;;;;12.16;87.25;100730.28;5031123;28;20043;-52
2024/04/05 04:46:13;;;;;;;26.45;4.80;;;;;;;12.03;87.85;100730.63;5021933;28;20041;-54
2024/04/05 04:48:40;;;;;;;25.40;4.40;;;;;;;11.87;88.52;100736.56;5042836;28;20044;-53
2024/04/05 04:51:06;;;;;;;35.45;5.68;;;;;;;11.95;88.82;100743.84;5044785;28;20051;-54
2024/04/05 04:53:32;;;;;;;27.38;4.53;;;;;;;12.11;87.92;100738.75;5039400;28;20061;-52
2024/04/05 04:55:58;;;;;;;22.05;5.40;;;;;;;11.91;88.62;100721.97;5030463;28;20191;-51
2024/04/05 04:58:28;;;;;;;20.55;4.47;;;;;;;11.49;91.15;100732.16;5016523;28;20741;-50
2024/04/05 05:00:55;;;;;;;24.60;5.05;;;;;;;11.93;89.60;100735.97;5037622;28;20098;-53
2024/04/05 05:03:21;;;;;;;28.52;5.45;;;;;;;11.76;89.17;100728.75;5038844;28;20530;-51
2024/04/05 05:05:47;;;;;;;27.63;4.40;;;;;;;11.56;90.80;100716.41;5044804;28;20049;-53
2024/04/05 05:08:13;;;;;;;29.42;5.45;;;;;;;11.69;90.39;100722.31;5044855;28;20053;-53
2024/04/05 05:10:40;;;;;;;29.17;4.55;;;;;;;11.73;90.15;100722.84;5025364;28;20132;-51
2024/04/05 05:13:06;;;;;;;25.02;4.70;;;;;;;11.80;90.18;100723.94;5045695;28;20045;-52
2024/04/05 05:15:32;;;;;;;31.00;5.10;;;;;;;11.69;90.25;100722.31;5043534;28;20049;-54
2024/04/05 05:17:58;;;;;;;35.83;4.90;;;;;;;11.68;91.54;100711.75;5030608;28;20452;-51
2024/04/05 05:20:26;;;;;;;32.85;5.35;;;;;;;11.84;90.89;100704.84;5012653;28;20060;-53
2024/04/05 05:22:56;;;;;;;32.03;5.65;;;;;;;11.74;91.00;100703.16;5034231;28;20191;-53
2024/04/05 05:25:21;;;;;;;31.88;5.13;;;;;;;11.80;90.43;100698.09;5031841;28;20041;-48
2024/04/05 05:27:47;;;;;;;28.67;5.15;;;;;;;11.68;91.85;100683.25;5011968;28;20072;-51
2024/04/05 05:30:14;;;;;;;26.90;5.15;;;;;;;11.66;91.71;100682.53;5028033;28;20079;-52
2024/04/05 05:32:41;;;;;;;29.48;4.88;;;;;;;11.64;91.74;100686.38;5032698;28;20049;-56
2024/04/05 05:35:07;;;;;;;30.83;5.53;;;;;;;11.72;92.13;100673.94;5046949;28;20047;-49
2024/04/05 05:37:34;;;;;;;35.08;4.90;;;;;;;11.62;92.53;100665.16;5043560;28;20045;-50
2024/04/05 05:40:01;;;;;;;25.30;5.15;;;;;;;12.07;90.18;100693.75;5045299;28;20055;-51
2024/04/05 05:42:27;;;;;;;29.33;4.80;;;;;;;12.18;89.81;100693.56;5042730;28;20053;-53
2024/04/05 05:44:54;;;;;;;32.22;4.65;;;;;;;11.71;91.47;100674.97;5045163;28;20057;-53
2024/04/05 05:47:20;;;;;;;36.08;5.25;;;;;;;11.77;91.13;100677.03;5042418;28;20052;-55
2024/04/05 05:49:48;;;;;;;40.00;5.15;;;;;;;11.67;93.03;100662.88;5036536;28;20163;-51
2024/04/05 05:52:14;;;;;;;33.28;5.55;;;;;;;11.83;92.82;100657.75;5043221;28;20060;-52
2024/04/05 05:54:40;;;;;;;32.13;5.65;;;;;;;11.88;91.48;100651.97;4997432;28;20052;-53
2024/04/05 05:57:05;;;;;;;29.98;4.57;;;;;;;12.03;90.83;100646.97;5037442;28;20488;-49
2024/04/05 05:59:31;;;;;;;36.38;5.20;;;;;;;11.82;91.01;100652.56;5013948;28;20057;-53
2024/04/05 06:01:57;;;;;;;34.08;6.00;;;;;;;11.78;92.59;100651.19;5023169;28;20049;-51
2024/04/05 06:04:24;;;;;;;24.20;4.93;;;;;;;11.68;93.36;100640.53;4986802;28;20098;-53
2024/04/05 06:06:51;;;;;;;31.85;5.78;;;;;;;11.84;92.07;100651.44;5037854;28;20489;-53
2024/04/05 06:09:17;;;;;;;29.00;4.75;;;;;;;11.72;93.54;100644.56;5027166;28;20408;-47
2024/04/05 06:11:45;;;;;;;30.20;6.22;;;;;;;11.90;92.04;100658.84;5035911;28;20423;-47
2024/04/05 06:14:11;;;;;;;27.70;7.13;;;;;;;12.14;90.53;100657.44;5036705;28;20490;-50
2024/04/05 06:16:37;;;;;;;28.02;5.30;;;;;;;11.95;91.57;100656.56;4992149;28;20196;-52
2024/04/05 06:19:03;;;;;;;37.35;5.25;;;;;;;11.80;92.03;100644.69;5019656;28;20057;-51
2024/04/05 06:21:30;;;;;;;37.55;6.47;;;;;;;11.75;93.13;100644.28;5039321;28;20128;-54
2024/04/05 06:23:59;;;;;;;22.85;4.40;;;;;;;12.28;90.52;100649.75;5025621;28;20047;-48
2024/04/05 06:26:28;;;;;;;35.67;5.03;;;;;;;12.11;91.50;100639.06;5042001;28;20049;-54
2024/04/05 06:28:54;;;;;;;30.65;5.50;;;;;;;12.11;90.98;100634.56;5042045;28;20045;-50
2024/04/05 06:31:20;;;;;;;28.17;4.70;;;;;;;12.14;90.35;100622.72;5041276;28;20610;-48
2024/04/05 06:33:46;;;;;;;27.45;5.65;;;;;;;12.25;89.99;100643.88;5043539;28;20128;-50
2024/04/05 06:36:11;;;;;;;27.23;5.10;;;;;;;12.10;91.95;100653.41;5043377;28;20045;-53
2024/04/05 06:38:37;;;;;;;28.88;4.72;;;;;;;12.24;90.83;100659.09;5028880;28;20888;-51
2024/04/05 06:41:04;;;;;;;31.00;6.30;;;;;;;12.22;90.70;100666.41;5039793;28;20045;-54
2024/04/05 06:43:31;;;;;;;26.77;6.38;;;;;;;12.51;90.70;100665.38;5041203;28;20059;-54
2024/04/05 06:46:00;;;;;;;29.88;6.82;;;;;;;12.26;90.76;100675.78;5040669;28;20045;-50
2024/04/05 06:48:26;;;;;;;25.65;5.30;;;;;;;12.37;90.73;100680.09;5040743;28;20048;-51
2024/04/05 06:50:52;;;;;;;29.83;5.25;;;;;;;12.49;90.18;100678.03;5038620;28;20057;-52
2024/04/05 06:53:20;;;;;;;23.80;4.75;;;;;;;12.55;89.79;100678.28;5035821;28;20493;-56
2024/04/05 06:55:50;;;;;;;35.20;6.10;;;;;;;12.30;90.93;100671.00;5036197;28;20045;-54
2024/04/05 06:58:17;;;;;;;24.38;4.80;;;;;;;12.41;91.03;100670.78;5033562;28;20056;-52
2024/04/05 07:00:43;;;;;;;28.58;4.97;;;;;;;12.47;91.01;100666.69;5037979;28;21541;-51
2024/04/05 07:03:09;;;;;;;27.35;5.28;;;;;;;12.25;91.36;100665.28;5042083;28;20059;-54
2024/04/05 07:05:35;;;;;;;27.95;5.05;;;;;;;12.47;90.35;100672.03;5031776;28;20045;-55
2024/04/05 07:08:01;;;;;;;21.85;4.63;;;;;;;12.59;91.00;100666.28;5016245;28;20057;-51
2024/04/05 07:10:27;;;;;;;24.95;5.80;;;;;;;12.56;90.27;100665.75;5040508;28;20099;-51
2024/04/05 07:12:54;;;;;;;28.05;5.07;;;;;;;12.16;93.09;100661.66;5041762;28;20045;-51
2024/04/05 07:15:20;;;;;;;27.65;5.20;;;;;;;12.81;90.00;100673.03;5039276;28;20049;-51
2024/04/05 07:17:51;;;;;;;27.58;5.20;;;;;;;12.81;89.48;100672.22;5019860;28;20053;-52
2024/04/05 07:20:24;;;;;;;24.88;4.93;;;;;;;12.73;89.80;100668.47;5021162;28;20517;-54
2024/04/05 07:22:52;;;;;;;26.65;4.78;;;;;;;13.20;88.89;100656.66;5030422;28;20050;-50
2024/04/05 07:25:22;;;;;;;25.65;5.35;;;;;;;13.34;88.39;100653.41;5023334;28;20054;-52
2024/04/05 07:27:53;;;;;;;25.85;4.90;;;;;;;13.10;88.94;100656.72;5024333;28;20048;-52
2024/04/05 07:30:20;;;;;;;26.27;4.82;;;;;;;12.98;90.42;100658.81;5037718;28;20053;-49
2024/04/05 07:32:48;;;;;;;22.33;5.25;;;;;;;13.37;88.09;100647.72;5039539;28;20045;-52
2024/04/05 07:35:14;;;;;;;28.10;5.95;;;;;;;13.31;88.20;100638.47;5037493;28;20052;-49
2024/04/05 07:37:40;;;;;;;33.97;6.43;;;;;;;13.43;88.10;100642.56;5037012;28;20068;-52
2024/04/05 07:40:06;;;;;;;27.33;5.55;;;;;;;13.65;87.74;100645.72;5033912;28;20041;-54
2024/04/05 07:42:32;;;;;;;21.83;4.75;;;;;;;13.73;86.77;100653.81;5041470;28;20057;-52
2024/04/05 07:44:59;;;;;;;26.42;5.15;;;;;;;13.90;86.38;100647.53;5020087;28;20106;-52
2024/04/05 07:47:25;;;;;;;30.83;5.30;;;;;;;13.57;87.49;100643.00;4992773;28;20050;-49
2024/04/05 07:49:52;;;;;;;25.10;5.55;;;;;;;13.24;88.46;100631.22;5038192;28;20098;-50
2024/04/05 07:52:20;;;;;;;27.92;5.53;;;;;;;13.87;86.84;100629.09;5032556;28;20052;-52
2024/04/05 07:54:46;;;;;;;20.65;4.78;;;;;;;13.71;86.90;100611.13;5030129;28;20051;-52
2024/04/05 07:57:13;;;;;;;25.70;5.15;;;;;;;13.45;88.20;100610.28;5028687;28;20428;-51
2024/04/05 07:59:40;;;;;;;18.23;5.32;;;;;;;14.06;87.02;100595.84;5011991;28;20053;-50
2024/04/05 08:02:06;;;;;;;17.50;5.20;;;;;;;14.06;86.30;100596.69;5026857;28;20060;-51
2024/04/05 08:04:33;;;;;;;15.45;4.93;;;;;;;14.21;86.06;100594.19;5033747;28;20411;-50
2024/04/05 08:06:59;;;;;;;14.52;4.88;;;;;;;14.41;84.45;100592.88;5042486;28;20415;-52
2024/04/05 08:09:25;;;;;;;18.05;4.72;;;;;;;14.21;86.33;100586.16;5037184;28;20472;-50
2024/04/05 08:11:51;;;;;;;21.08;4.50;;;;;;;13.95;86.83;100572.88;5045039;28;20041;-51
2024/04/05 08:14:17;;;;;;;17.63;4.88;;;;;;;14.08;87.61;100569.72;5009412;28;20049;-53
2024/04/05 08:16:43;;;;;;;18.17;4.95;;;;;;;14.36;85.71;100567.59;5012056;28;20420;-53
2024/04/05 08:19:09;;;;;;;26.25;6.45;;;;;;;13.99;87.60;100562.66;5034305;28;20060;-51
2024/04/05 08:21:34;;;;;;;23.63;4.65;;;;;;;14.18;86.43;100557.00;5037666;28;20044;-53
2024/04/05 08:24:00;;;;;;;24.05;5.07;;;;;;;13.95;87.90;100546.09;5043397;28;20089;-55
2024/04/05 08:26:26;;;;;;;17.00;4.70;;;;;;;14.06;87.05;100548.44;5036680;28;20049;-50
2024/04/05 08:28:52;;;;;;;16.25;6.22;;;;;;;14.53;85.74;100531.75;5042799;28;20056;-53
2024/04/05 08:31:19;;;;;;;20.50;5.50;;;;;;;14.48;85.90;100528.75;5016090;28;20045;-51
2024/04/05 08:33:46;;;;;;;18.90;5.10;;;;;;;14.25;86.46;100520.47;5024306;28;20072;-52
2024/04/05 08:36:11;;;;;;;19.33;5.47;;;;;;;14.41;86.86;100509.78;5022574;28;20504;-51
2024/04/05 08:38:38;;;;;;;18.58;5.22;;;;;;;14.30;87.22;100527.06;4999947;28;20118;-50
2024/04/05 08:41:08;;;;;;;16.95;5.15;;;;;;;14.29;86.17;100509.28;5036018;28;20047;-53
2024/04/05 08:43:40;;;;;;;24.52;5.43;;;;;;;14.21;87.91;100495.88;5039069;28;20059;-52
2024/04/05 08:46:07;;;;;;;21.60;5.50;;;;;;;13.83;88.28;100486.59;5015281;28;20340;-48
2024/04/05 08:48:36;;;;;;;18.48;4.28;;;;;;;14.61;85.83;100473.59;5030139;28;20060;-55
2024/04/05 08:51:07;;;;;;;14.38;3.97;;;;;;;14.59;86.49;100474.75;5037788;28;20044;-51
2024/04/05 08:53:33;;;;;;;16.38;4.07;;;;;;;14.90;85.46;100469.50;5024117;28;20068;-52
2024/04/05 08:55:59;;;;;;;20.17;5.22;;;;;;;14.36;86.39;100481.81;5038695;28;20397;-53
2024/04/05 08:58:27;;;;;;;17.75;5.68;;;;;;;14.76;85.36;100481.78;5039907;28;20498;-54
2024/04/05 09:00:53;;;;;;;16.58;3.90;;;;;;;14.40;85.54;100485.81;5043100;28;20419;-51
2024/04/05 09:03:19;;;;;;;14.35;3.90;;;;;;;14.43;86.01;100488.16;5035870;28;20046;-54
2024/04/05 09:05:45;;;;;;;21.05;4.05;;;;;;;14.73;85.07;100490.16;5042984;28;20165;-50
2024/04/05 09:08:11;;;;;;;14.13;3.63;;;;;;;14.49;84.95;100528.59;5024973;28;20053;-55
2024/04/05 09:10:36;;;;;;;17.40;4.82;;;;;;;14.20;87.00;100539.75;5041685;28;20056;-52
2024/04/05 09:13:06;;;;;;;14.40;4.72;;;;;;;14.22;87.29;100524.34;5042976;28;20056;-49
2024/04/05 09:15:33;;;;;;;18.13;4.73;;;;;;;14.47;86.37;100524.38;5042913;28;20507;-52
2024/04/05 09:17:58;;;;;;;22.25;4.53;;;;;;;13.99;89.16;100509.91;5033149;28;20342;-55
2024/04/05 09:20:31;;;;;;;11.52;3.80;;;;;;;13.98;90.24;100496.69;5041431;28;20393;-53
2024/04/05 09:23:06;;;;;;;14.50;4.53;;;;;;;14.24;88.98;100490.16;5018233;28;20148;-47
2024/04/05 09:25:38;;;;;;;14.90;3.30;;;;;;;14.29;88.19;100481.63;5042199;28;20063;-53
2024/04/05 09:28:13;;;;;;;21.73;4.90;;;;;;;14.02;89.97;100481.97;5024877;28;20055;-52
2024/04/05 09:30:40;;;;;;;18.50;4.68;;;;;;;13.90;91.66;100473.41;5018172;28;20067;-54
2024/04/05 09:33:06;;;;;;;16.17;3.58;;;;;;;13.90;91.30;100468.06;5028443;28;20053;-54
2024/04/05 09:35:39;;;;;;;12.68;3.20;;;;;;;14.08;89.69;100466.06;5036923;28;20055;-51
2024/04/05 09:38:05;;;;;;;12.45;3.30;;;;;;;13.90;91.67;100462.72;5025049;28;20381;-52
2024/04/05 09:40:35;;;;;;;13.55;3.85;;;;;;;14.05;91.47;100457.50;5035274;28;20099;-50
2024/04/05 09:43:03;;;;;;;;;;;;;;;13.86;92.17;100466.69;5027547;28;20531;-52
2024/04/05 09:45:31;;;;;;;16.58;3.15;;;;;;;14.26;90.02;100458.69;5002398;28;19986;-50
2024/04/05 09:47:57;;;;;;;16.77;4.40;;;;;;;14.31;88.88;100468.91;5039296;28;20045;-47
2024/04/05 09:50:25;;;;;;;16.10;3.25;;;;;;;13.81;91.58;100463.69;5016897;28;20041;-51
2024/04/05 09:52:52;;;;;;;16.20;3.90;;;;;;;14.01;91.31;100459.69;5038622;28;20056;-49
2024/04/05 09:55:23;;;;;;;10.70;3.47;;;;;;;14.02;89.72;100463.22;5012704;28;20053;-49
2024/04/05 09:57:49;;;;;;;13.55;3.42;;;;;;;14.19;89.61;100483.63;5058198;28;20049;-50
2024/04/05 10:00:24;;;;;;;16.02;3.40;;;;;;;13.69;92.40;100491.78;5035172;28;20071;-53
2024/04/05 10:02:53;;;;;;;17.13;4.40;;;;;;;13.89;91.01;100495.84;5035350;28;20787;-55
2024/04/05 10:05:30;;;;;;;15.68;3.67;;;;;;;14.22;90.04;100496.72;5042621;28;20049;-54
2024/04/05 10:08:07;;;;;;;18.90;4.13;;;;;;;13.94;90.79;100507.75;5038699;28;20411;-54
2024/04/05 10:10:34;;;;;;;19.00;4.22;;;;;;;14.07;90.79;100496.53;5026729;28;20057;-49
2024/04/05 10:13:17;;;;;;;15.32;4.93;;;;;;;13.79;92.55;100487.09;5024907;28;20116;-51
2024/04/05 10:15:55;;;;;;;17.20;4.32;;;;;;;13.76;92.97;100487.47;5038576;28;20656;-50
2024/04/05 10:18:25;;;;;;;15.60;4.53;;;;;;;13.80;93.26;100478.91;5041301;28;20117;-50
2024/04/05 10:21:11;;;;;;;;;;;;;;;13.76;93.18;100474.91;5035402;28;20484;-50
2024/04/05 10:23:45;;;;;;;14.65;3.83;;;;;;;13.90;92.04;100468.06;5032324;28;21765;-54
2024/04/05 10:26:13;;;;;;;12.75;4.30;;;;;;;13.94;92.61;100464.03;5043720;28;20053;-51
2024/04/05 10:28:39;;;;;;;14.38;4.25;;;;;;;13.62;93.72;100461.31;5037713;28;20082;-51
2024/04/05 10:31:06;;;;;;;13.32;4.47;;;;;;;14.10;92.56;100463.22;5021788;28;20049;-52
2024/04/05 10:33:32;;;;;;;16.13;4.43;;;;;;;13.59;94.41;100456.28;5036172;28;20071;-50
2024/04/05 10:35:59;;;;;;;19.65;4.47;;;;;;;13.39;95.09;100440.47;5043078;28;20071;-51
2024/04/05 10:38:29;;;;;;;15.15;5.05;;;;;;;13.98;92.49;100435.91;5011653;28;20392;-50
2024/04/05 10:40:59;;;;;;;13.75;3.83;;;;;;;13.86;93.64;100430.03;5040319;28;20478;-46
2024/04/05 10:43:25;;;;;;;16.23;4.40;;;;;;;13.56;94.96;100429.84;5028330;28;20505;-52
2024/04/05 10:45:53;;;;;;;21.45;4.85;;;;;;;13.75;94.36;100419.66;5040239;28;20295;-53
2024/04/05 10:48:21;;;;;;;17.38;4.50;;;;;;;13.62;95.02;100418.47;5041242;28;20045;-53
2024/04/05 10:50:48;;;;;;;21.40;4.50;;;;;;;14.08;93.21;100404.44;5038433;28;20049;-50
2024/04/05 10:53:18;;;;;;;16.13;4.22;;;;;;;14.33;91.90;100389.16;5030909;28;20083;-54
2024/04/05 10:55:45;;;;;;;15.60;5.05;;;;;;;13.87;93.20;100378.16;5036593;28;20303;-54
2024/04/05 10:58:12;;;;;;;15.93;4.45;;;;;;;14.07;94.79;100372.44;5024437;28;20056;-53
2024/04/05 11:00:38;;;;;;;16.17;4.20;;;;;;;14.58;92.86;100361.28;5009602;28;20089;-51
2024/04/05 11:03:07;;;;;;;14.32;4.53;;;;;;;14.89;90.80;100364.03;5043724;28;20045;-54
2024/04/05 11:05:34;;;;;;;20.58;5.18;;;;;;;14.63;91.92;100366.16;5037300;28;20064;-52
2024/04/05 11:08:03;;;;;;;15.63;4.43;;;;;;;14.51;93.23;100360.34;5040537;28;20770;-52
2024/04/05 11:10:36;;;;;;;13.35;4.28;;;;;;;14.36;92.63;100358.50;5038876;28;20047;-56
2024/04/05 11:13:16;;;;;;;14.75;3.92;;;;;;;14.52;92.07;100361.16;5039741;28;20051;-51
2024/04/05 11:15:46;;;;;;;;;;;;;;;14.19;92.99;100369.25;5038767;28;20898;-53